Ana Sayfa
METAR-TAF:

METAR-TAF

Havaalanları :

Guaymas, Meksika

Enlem: 27-58N, Boylam: 110-56W, yükseklik: 27 m

Güncel hava durumu gözlemi

Rapor saat 14:40 UTC de 44 dakika önce yapıldı.
Sakin rüzgar
Sıcaklık 15°C
Nem 55%
Basınç 1012 hPa
Görüş mesafesi: 16.1 km
Açık gökyüzü

METAR: MMGM 291440Z 00000KT 10SM SKC 15/06 A2987 RMK HZY

Saat: 08:24 (15:24 UTC)

Tahmin

Rapor saat 05:27 UTC de 9 saat ve 57 dakika önce yapıldı.
Ayın 29'si saat 06 UTC'den ayın 30'si saat 06 UTC'ye kadar geçerli Tahmin
Rüzgar kuzeydan kt
Görüş mesafesi: 8.0 km
Açık gökyüzü
Toz Pusu
Ayın 29'si saat 1800 UTC'den
Rüzgar kuzeybatıdan 12 kt
Görüş mesafesi: 10 km
Açık gökyüzü
Dönüşüyor
ayın 30'si saat 03 UTC'den ayın 30'si saat 05 UTC'ye kadar
Rüzgar batıdan 4 kt

TAF: MMGM 290527Z 2906/3006 00000KT 5SM HZ SKC FM291800 32012KT P6SM SKC BECMG 3003/3005 28004KT

4.000'den fazla havaalanı için hava durumu gözlemleri ve tahminleri (METAR ve TAF raporları).

Kullanılabilir istasyonlar harita üzerinde sarı ve kırmızı noktalarla gösterilir.

İstasyonun adını görmek için fareyi noktanın üzerinde gezdirin.

Sonrasında hava gözlem ve tahminlerini görmek için tıklayın.

Haritayı değiştirmek için: yaklaştırmak için siyah artı işaretli yeşil düğmeye ve uzaklaştırmak için de eksi işaretli düğmeye hızla tıklayın; bitişik haritalar için yeşil okları kullanın.


METAR-TAF: